Barbourville, KY (40906)

10:45 PM EDT on July 23, 2014 (GMT -0400)
liford's (KKYBARBO2) Elev 1066 ft | 36.84 °N, 83.85 °W | Change Station

Current weather conditions updated 2 minutes ago

Mostly Cloudy
Mostly Cloudy
72.5 °F
Feels Like 72.5 °F
N
0.0
Wind Variable Wind from WNW

Tomorrow is forecast to be Much Cooler than today. Morning thunderstorms.

Today
High -- | Low -- °F
--% Chance of Precip.
Yesterday
High -- | Low -- °F
Precip. -- in
6:33 AM 8:49 PM
Waning Crescent, 7% visible
Pressure 30.04 in
Visibility 9.0 miles
Clouds Scattered Clouds 700 ft
Mostly Cloudy 2500 ft
Mostly Cloudy 10000 ft
Dew Point 72 °F
Humidity 99%
Rainfall 0.03 in
Snow Depth Not available.
UV 0 out of 12
Pollen 3.30 out of 12
Air Quality Not available.
Flu Activity Not available.
SPECI KLOZ 240231Z AUTO 31003KT 9SM -RA SCT007 BKN025 BKN100 22/20 A3004 RMK AO2 LTG DSNT E-SW TSE0154 P0005 T02220200

More Conditions Fewer Conditions

Pressure 30.04 in
Visibility 9.0 miles
Clouds Scattered Clouds 700 ft
Mostly Cloudy 2500 ft
Mostly Cloudy 10000 ft
Dew Point 72 °F
Humidity 99%
Rainfall 0.03 in
Snow Depth Not available.
UV 0 out of 12
Pollen 3.30 out of 12
Air Quality Not available.
Flu Activity Not available.
SPECI KLOZ 240231Z AUTO 31003KT 9SM -RA SCT007 BKN025 BKN100 22/20 A3004 RMK AO2 LTG DSNT E-SW TSE0154 P0005 T02220200

More Conditions Fewer Conditions

10-Day Weather Forecast

Almanac

Astronomy

Jul. 23, 2014 Rise Set
Actual Time 6:33 AM EDT 8:49 PM EDT
Civil Twilight 6:04 AM EDT 9:19 PM EDT
Nautical Twilight 5:28 AM EDT 9:55 PM EDT
Astronomical Twilight 4:49 AM EDT 10:34 PM EDT
Moon 3:51 AM EDT (7/23) 6:18 PM EDT (7/23)
Length of Visible Light 15h 14m
Length of Day
14h 15m
Tomorrow will be 1m 30s shorter.
Waning Crescent, 7% of the Moon is Illuminated
Today
Waning Crescent
Jul 26
New
Aug 3
First Quarter
Aug 10
Full
Aug 17
Last Quarter

Today's Extremes

State Highs State Lows

Community

WunderPhotos

Upload Photos

1,736,864 photos uploaded!

Nearby

Snow Depth

Station Depth Elevation
No new snow has been reported.

Earthquake Activity

City Distance Mag. Time & Date
No recent earthquake activity has been reported nearby.
Minimum magnitude displayed is 2.5.

Coastal Water Temperatures

Place Temperature
No Stations Reporting

Nearby Weather Stations

Station Location Temp. Dew Point Humidity Wind Precip. Elev Updated Type
liford's, Barbourville, KY 72.5 °F 72 °F 99% WNW  at  0.0 mph - / hr 1066 ft 10:43 PM EDT Normal
Mackey Bend, Barbourville, KY 73.0 °F 73 °F 99% East  at  0.0 mph 0.08 in / hr 1020 ft 10:45 PM EDT Rapid Fire
MSWO, London, KY 70.5 °F 69 °F 95% NNW  at  0.0 mph 0.00 in / hr 1163 ft 10:39 PM EDT Rapid Fire
Colmar, Middlesboro, KY 70.8 °F 69 °F 94% SW  at  0.0 mph - / hr 1135 ft 10:43 PM EDT Normal
RAWS YELLOW CREEK KY, Middlesboro, KY 72 °F 72 °F 99% North  at  0 mph 0.00 in / hr 1089 ft 9:26 PM EDT MADIS

Show More Stations Show Fewer Stations